sensor_id;sensor_type;location;lat;lon;timestamp;temperature;humidity
6988;DHT22;3534;49.960;8.018;2023-06-14T00:00:03;22.60;55.20
6988;DHT22;3534;49.960;8.018;2023-06-14T00:02:32;22.60;55.30
6988;DHT22;3534;49.960;8.018;2023-06-14T00:04:59;22.60;55.40
6988;DHT22;3534;49.960;8.018;2023-06-14T00:07:34;22.50;55.40
6988;DHT22;3534;49.960;8.018;2023-06-14T00:10:01;22.50;55.80
6988;DHT22;3534;49.960;8.018;2023-06-14T00:12:28;22.50;55.90
6988;DHT22;3534;49.960;8.018;2023-06-14T00:14:56;22.40;55.90
6988;DHT22;3534;49.960;8.018;2023-06-14T00:17:23;22.40;56.30
6988;DHT22;3534;49.960;8.018;2023-06-14T00:19:50;22.30;56.40
6988;DHT22;3534;49.960;8.018;2023-06-14T00:22:16;22.20;56.50
6988;DHT22;3534;49.960;8.018;2023-06-14T00:24:43;22.20;56.70
6988;DHT22;3534;49.960;8.018;2023-06-14T00:27:10;22.20;56.80
6988;DHT22;3534;49.960;8.018;2023-06-14T00:29:36;22.20;56.90
6988;DHT22;3534;49.960;8.018;2023-06-14T00:32:05;22.10;57.00
6988;DHT22;3534;49.960;8.018;2023-06-14T00:34:32;22.10;57.00
6988;DHT22;3534;49.960;8.018;2023-06-14T00:36:58;22.00;56.80
6988;DHT22;3534;49.960;8.018;2023-06-14T00:39:25;22.00;56.70
6988;DHT22;3534;49.960;8.018;2023-06-14T00:41:52;21.90;56.70
6988;DHT22;3534;49.960;8.018;2023-06-14T00:44:19;21.90;56.50
6988;DHT22;3534;49.960;8.018;2023-06-14T00:46:47;21.90;56.50
6988;DHT22;3534;49.960;8.018;2023-06-14T00:49:15;21.80;56.40
6988;DHT22;3534;49.960;8.018;2023-06-14T00:51:43;21.90;56.30
6988;DHT22;3534;49.960;8.018;2023-06-14T00:54:10;21.80;56.10
6988;DHT22;3534;49.960;8.018;2023-06-14T00:56:37;21.80;55.90
6988;DHT22;3534;49.960;8.018;2023-06-14T00:59:04;21.80;56.00
6988;DHT22;3534;49.960;8.018;2023-06-14T01:01:32;21.80;55.90
6988;DHT22;3534;49.960;8.018;2023-06-14T01:03:59;21.80;55.90
6988;DHT22;3534;49.960;8.018;2023-06-14T01:06:33;21.70;55.70
6988;DHT22;3534;49.960;8.018;2023-06-14T01:09:12;21.70;55.50
6988;DHT22;3534;49.960;8.018;2023-06-14T01:11:47;21.70;55.20
6988;DHT22;3534;49.960;8.018;2023-06-14T01:14:16;21.70;55.20
6988;DHT22;3534;49.960;8.018;2023-06-14T01:16:44;21.70;55.10
6988;DHT22;3534;49.960;8.018;2023-06-14T01:19:12;21.70;55.20
6988;DHT22;3534;49.960;8.018;2023-06-14T01:21:41;21.60;55.20
6988;DHT22;3534;49.960;8.018;2023-06-14T01:24:09;21.60;55.10
6988;DHT22;3534;49.960;8.018;2023-06-14T01:26:37;21.60;55.10
6988;DHT22;3534;49.960;8.018;2023-06-14T01:29:06;21.60;55.20
6988;DHT22;3534;49.960;8.018;2023-06-14T01:31:34;21.60;55.40
6988;DHT22;3534;49.960;8.018;2023-06-14T01:34:07;21.50;55.50
6988;DHT22;3534;49.960;8.018;2023-06-14T01:36:36;21.50;55.50
6988;DHT22;3534;49.960;8.018;2023-06-14T01:39:04;21.50;55.50
6988;DHT22;3534;49.960;8.018;2023-06-14T01:41:34;21.50;55.50
6988;DHT22;3534;49.960;8.018;2023-06-14T01:44:02;21.50;55.40
6988;DHT22;3534;49.960;8.018;2023-06-14T01:46:29;21.50;55.30
6988;DHT22;3534;49.960;8.018;2023-06-14T01:48:56;21.50;55.30
6988;DHT22;3534;49.960;8.018;2023-06-14T01:51:23;21.50;55.30
6988;DHT22;3534;49.960;8.018;2023-06-14T01:53:50;21.50;55.40
6988;DHT22;3534;49.960;8.018;2023-06-14T01:56:17;21.50;55.60
6988;DHT22;3534;49.960;8.018;2023-06-14T01:58:45;21.50;55.80
6988;DHT22;3534;49.960;8.018;2023-06-14T02:01:12;21.40;55.80
6988;DHT22;3534;49.960;8.018;2023-06-14T02:03:39;21.40;56.00
6988;DHT22;3534;49.960;8.018;2023-06-14T02:06:05;21.40;56.20
6988;DHT22;3534;49.960;8.018;2023-06-14T02:08:32;21.30;56.60
6988;DHT22;3534;49.960;8.018;2023-06-14T02:10:59;21.20;56.80
6988;DHT22;3534;49.960;8.018;2023-06-14T02:13:25;21.20;57.20
6988;DHT22;3534;49.960;8.018;2023-06-14T02:15:53;21.10;57.20
6988;DHT22;3534;49.960;8.018;2023-06-14T02:18:20;21.00;57.90
6988;DHT22;3534;49.960;8.018;2023-06-14T02:20:47;21.00;59.10
6988;DHT22;3534;49.960;8.018;2023-06-14T02:23:14;20.90;59.70
6988;DHT22;3534;49.960;8.018;2023-06-14T02:25:41;20.80;61.60
6988;DHT22;3534;49.960;8.018;2023-06-14T02:28:10;20.80;61.40
6988;DHT22;3534;49.960;8.018;2023-06-14T02:30:37;20.80;61.50
6988;DHT22;3534;49.960;8.018;2023-06-14T02:33:05;20.80;60.80
6988;DHT22;3534;49.960;8.018;2023-06-14T02:35:32;20.80;60.30
6988;DHT22;3534;49.960;8.018;2023-06-14T02:37:58;20.90;59.90
6988;DHT22;3534;49.960;8.018;2023-06-14T02:40:26;20.90;59.80
6988;DHT22;3534;49.960;8.018;2023-06-14T02:42:52;20.90;59.60
6988;DHT22;3534;49.960;8.018;2023-06-14T02:45:19;20.90;59.60
6988;DHT22;3534;49.960;8.018;2023-06-14T02:47:46;20.90;59.60
6988;DHT22;3534;49.960;8.018;2023-06-14T02:50:14;20.90;59.70
6988;DHT22;3534;49.960;8.018;2023-06-14T02:52:41;20.90;59.70
6988;DHT22;3534;49.960;8.018;2023-06-14T02:55:10;20.90;59.50
6988;DHT22;3534;49.960;8.018;2023-06-14T02:57:36;20.90;59.50
6988;DHT22;3534;49.960;8.018;2023-06-14T03:00:04;20.90;59.20
6988;DHT22;3534;49.960;8.018;2023-06-14T03:02:33;20.80;59.10
6988;DHT22;3534;49.960;8.018;2023-06-14T03:05:00;20.80;59.20
6988;DHT22;3534;49.960;8.018;2023-06-14T03:07:29;20.80;59.40
6988;DHT22;3534;49.960;8.018;2023-06-14T03:09:56;20.70;59.50
6988;DHT22;3534;49.960;8.018;2023-06-14T03:12:23;20.70;60.20
6988;DHT22;3534;49.960;8.018;2023-06-14T03:14:50;20.70;60.70
6988;DHT22;3534;49.960;8.018;2023-06-14T03:17:17;20.60;60.80
6988;DHT22;3534;49.960;8.018;2023-06-14T03:19:44;20.60;61.60
6988;DHT22;3534;49.960;8.018;2023-06-14T03:22:11;20.50;61.90
6988;DHT22;3534;49.960;8.018;2023-06-14T03:24:39;20.50;62.40
6988;DHT22;3534;49.960;8.018;2023-06-14T03:27:06;20.40;62.70
6988;DHT22;3534;49.960;8.018;2023-06-14T03:29:35;20.40;62.90
6988;DHT22;3534;49.960;8.018;2023-06-14T03:32:03;20.30;63.20
6988;DHT22;3534;49.960;8.018;2023-06-14T03:34:29;20.20;63.40
6988;DHT22;3534;49.960;8.018;2023-06-14T03:36:56;20.20;63.60
6988;DHT22;3534;49.960;8.018;2023-06-14T03:39:23;20.10;64.10
6988;DHT22;3534;49.960;8.018;2023-06-14T03:41:51;20.10;64.40
6988;DHT22;3534;49.960;8.018;2023-06-14T03:44:18;20.00;64.50
6988;DHT22;3534;49.960;8.018;2023-06-14T03:46:45;20.00;64.80
6988;DHT22;3534;49.960;8.018;2023-06-14T03:49:12;19.90;65.20
6988;DHT22;3534;49.960;8.018;2023-06-14T03:51:38;19.80;65.60
6988;DHT22;3534;49.960;8.018;2023-06-14T03:54:06;19.80;66.00
6988;DHT22;3534;49.960;8.018;2023-06-14T03:56:33;19.80;66.20
6988;DHT22;3534;49.960;8.018;2023-06-14T03:59:01;19.80;66.50
6988;DHT22;3534;49.960;8.018;2023-06-14T04:01:28;19.70;66.90
6988;DHT22;3534;49.960;8.018;2023-06-14T04:03:55;19.70;67.10
6988;DHT22;3534;49.960;8.018;2023-06-14T04:06:23;19.70;67.20
6988;DHT22;3534;49.960;8.018;2023-06-14T04:08:57;19.60;67.60
6988;DHT22;3534;49.960;8.018;2023-06-14T04:11:26;19.60;67.90
6988;DHT22;3534;49.960;8.018;2023-06-14T04:13:53;19.50;68.10
6988;DHT22;3534;49.960;8.018;2023-06-14T04:16:23;19.50;68.60
6988;DHT22;3534;49.960;8.018;2023-06-14T04:18:49;19.50;69.10
6988;DHT22;3534;49.960;8.018;2023-06-14T04:21:17;19.50;69.00
6988;DHT22;3534;49.960;8.018;2023-06-14T04:23:44;19.50;69.50
6988;DHT22;3534;49.960;8.018;2023-06-14T04:26:11;19.50;70.50
6988;DHT22;3534;49.960;8.018;2023-06-14T04:28:38;19.50;70.20
6988;DHT22;3534;49.960;8.018;2023-06-14T04:31:06;19.50;70.40
6988;DHT22;3534;49.960;8.018;2023-06-14T04:33:35;19.50;70.60
6988;DHT22;3534;49.960;8.018;2023-06-14T04:36:09;19.50;71.00
6988;DHT22;3534;49.960;8.018;2023-06-14T04:38:37;19.50;71.40
6988;DHT22;3534;49.960;8.018;2023-06-14T04:41:03;19.50;71.70
6988;DHT22;3534;49.960;8.018;2023-06-14T04:43:31;19.50;71.80
6988;DHT22;3534;49.960;8.018;2023-06-14T04:46:03;19.50;71.80
6988;DHT22;3534;49.960;8.018;2023-06-14T04:48:31;19.60;72.20
6988;DHT22;3534;49.960;8.018;2023-06-14T04:50:59;19.60;72.70
6988;DHT22;3534;49.960;8.018;2023-06-14T04:53:26;19.60;73.20
6988;DHT22;3534;49.960;8.018;2023-06-14T04:55:54;19.60;73.70
6988;DHT22;3534;49.960;8.018;2023-06-14T04:58:21;19.60;74.00
6988;DHT22;3534;49.960;8.018;2023-06-14T05:00:47;19.70;74.50
6988;DHT22;3534;49.960;8.018;2023-06-14T05:03:14;19.70;75.00
6988;DHT22;3534;49.960;8.018;2023-06-14T05:05:41;19.70;75.50
6988;DHT22;3534;49.960;8.018;2023-06-14T05:08:09;19.70;76.20
6988;DHT22;3534;49.960;8.018;2023-06-14T05:10:36;19.80;76.80
6988;DHT22;3534;49.960;8.018;2023-06-14T05:13:03;19.80;77.10
6988;DHT22;3534;49.960;8.018;2023-06-14T05:15:30;19.80;77.40
6988;DHT22;3534;49.960;8.018;2023-06-14T05:17:56;19.80;77.80
6988;DHT22;3534;49.960;8.018;2023-06-14T05:20:24;19.90;78.10
6988;DHT22;3534;49.960;8.018;2023-06-14T05:22:52;19.90;78.40
6988;DHT22;3534;49.960;8.018;2023-06-14T05:25:20;19.90;78.30
6988;DHT22;3534;49.960;8.018;2023-06-14T05:27:47;20.00;78.40
6988;DHT22;3534;49.960;8.018;2023-06-14T05:30:15;20.00;75.60
6988;DHT22;3534;49.960;8.018;2023-06-14T05:32:42;19.90;75.00
6988;DHT22;3534;49.960;8.018;2023-06-14T05:35:09;19.80;75.80
6988;DHT22;3534;49.960;8.018;2023-06-14T05:37:36;19.80;77.50
6988;DHT22;3534;49.960;8.018;2023-06-14T05:40:03;19.80;79.00
6988;DHT22;3534;49.960;8.018;2023-06-14T05:42:32;19.90;79.50
6988;DHT22;3534;49.960;8.018;2023-06-14T05:44:59;19.90;78.60
6988;DHT22;3534;49.960;8.018;2023-06-14T05:47:26;20.00;78.00
6988;DHT22;3534;49.960;8.018;2023-06-14T05:49:53;20.00;76.40
6988;DHT22;3534;49.960;8.018;2023-06-14T05:52:20;20.00;75.30
6988;DHT22;3534;49.960;8.018;2023-06-14T05:54:47;19.80;74.80
6988;DHT22;3534;49.960;8.018;2023-06-14T05:57:14;19.80;75.60
6988;DHT22;3534;49.960;8.018;2023-06-14T05:59:42;19.80;75.80
6988;DHT22;3534;49.960;8.018;2023-06-14T06:02:09;19.90;76.00
6988;DHT22;3534;49.960;8.018;2023-06-14T06:04:36;19.90;75.80
6988;DHT22;3534;49.960;8.018;2023-06-14T06:07:03;19.90;76.00
6988;DHT22;3534;49.960;8.018;2023-06-14T06:09:30;20.00;75.90
6988;DHT22;3534;49.960;8.018;2023-06-14T06:11:57;20.10;76.30
6988;DHT22;3534;49.960;8.018;2023-06-14T06:14:24;20.20;76.40
6988;DHT22;3534;49.960;8.018;2023-06-14T06:16:52;20.20;76.50
6988;DHT22;3534;49.960;8.018;2023-06-14T06:19:19;20.40;75.30
6988;DHT22;3534;49.960;8.018;2023-06-14T06:21:45;20.40;75.60
6988;DHT22;3534;49.960;8.018;2023-06-14T06:24:12;20.50;79.60
6988;DHT22;3534;49.960;8.018;2023-06-14T06:26:38;20.60;72.70
6988;DHT22;3534;49.960;8.018;2023-06-14T06:29:06;20.70;72.50
6988;DHT22;3534;49.960;8.018;2023-06-14T06:31:33;20.80;74.10
6988;DHT22;3534;49.960;8.018;2023-06-14T06:34:01;20.90;78.60
6988;DHT22;3534;49.960;8.018;2023-06-14T06:36:28;20.90;77.70
6988;DHT22;3534;49.960;8.018;2023-06-14T06:38:55;21.00;74.30
6988;DHT22;3534;49.960;8.018;2023-06-14T06:41:21;21.10;76.30
6988;DHT22;3534;49.960;8.018;2023-06-14T06:43:48;21.20;80.30
6988;DHT22;3534;49.960;8.018;2023-06-14T06:46:15;21.20;76.00
6988;DHT22;3534;49.960;8.018;2023-06-14T06:48:43;21.30;80.10
6988;DHT22;3534;49.960;8.018;2023-06-14T06:51:11;21.30;80.60
6988;DHT22;3534;49.960;8.018;2023-06-14T06:53:38;21.30;79.50
6988;DHT22;3534;49.960;8.018;2023-06-14T06:56:05;21.40;81.00
6988;DHT22;3534;49.960;8.018;2023-06-14T06:58:31;21.50;76.70
6988;DHT22;3534;49.960;8.018;2023-06-14T07:00:58;21.50;76.80
6988;DHT22;3534;49.960;8.018;2023-06-14T07:03:25;21.60;71.00
6988;DHT22;3534;49.960;8.018;2023-06-14T07:05:52;21.60;73.00
6988;DHT22;3534;49.960;8.018;2023-06-14T07:08:20;21.60;68.50
6988;DHT22;3534;49.960;8.018;2023-06-14T07:10:46;21.70;71.10
6988;DHT22;3534;49.960;8.018;2023-06-14T07:13:13;21.70;71.20
6988;DHT22;3534;49.960;8.018;2023-06-14T07:15:40;21.80;72.30
6988;DHT22;3534;49.960;8.018;2023-06-14T07:18:07;21.80;74.00
6988;DHT22;3534;49.960;8.018;2023-06-14T07:20:34;21.80;67.20
6988;DHT22;3534;49.960;8.018;2023-06-14T07:23:03;21.80;70.70
6988;DHT22;3534;49.960;8.018;2023-06-14T07:25:32;21.90;65.90
6988;DHT22;3534;49.960;8.018;2023-06-14T07:27:58;21.90;67.00
6988;DHT22;3534;49.960;8.018;2023-06-14T07:30:25;21.90;65.00
6988;DHT22;3534;49.960;8.018;2023-06-14T07:32:52;21.90;69.90
6988;DHT22;3534;49.960;8.018;2023-06-14T07:35:20;21.90;67.60
6988;DHT22;3534;49.960;8.018;2023-06-14T07:37:46;22.00;68.30
6988;DHT22;3534;49.960;8.018;2023-06-14T07:40:14;22.00;65.60
6988;DHT22;3534;49.960;8.018;2023-06-14T07:42:42;22.10;68.10
6988;DHT22;3534;49.960;8.018;2023-06-14T07:45:09;22.10;65.10
6988;DHT22;3534;49.960;8.018;2023-06-14T07:47:36;22.20;65.40
6988;DHT22;3534;49.960;8.018;2023-06-14T07:50:04;22.20;65.20
6988;DHT22;3534;49.960;8.018;2023-06-14T07:52:30;22.20;65.20
6988;DHT22;3534;49.960;8.018;2023-06-14T07:54:57;22.20;65.10
6988;DHT22;3534;49.960;8.018;2023-06-14T07:57:24;22.30;64.40
6988;DHT22;3534;49.960;8.018;2023-06-14T07:59:52;22.30;64.00
6988;DHT22;3534;49.960;8.018;2023-06-14T08:02:19;22.30;63.70
6988;DHT22;3534;49.960;8.018;2023-06-14T08:04:45;22.30;62.80
6988;DHT22;3534;49.960;8.018;2023-06-14T08:07:13;22.30;63.30
6988;DHT22;3534;49.960;8.018;2023-06-14T08:09:40;22.40;62.00
6988;DHT22;3534;49.960;8.018;2023-06-14T08:12:08;22.40;62.80
6988;DHT22;3534;49.960;8.018;2023-06-14T08:14:35;22.50;63.90
6988;DHT22;3534;49.960;8.018;2023-06-14T08:17:04;22.50;62.80
6988;DHT22;3534;49.960;8.018;2023-06-14T08:19:30;22.50;62.80
6988;DHT22;3534;49.960;8.018;2023-06-14T08:21:57;22.50;61.90
6988;DHT22;3534;49.960;8.018;2023-06-14T08:24:24;22.60;62.50
6988;DHT22;3534;49.960;8.018;2023-06-14T08:26:52;22.60;62.70
6988;DHT22;3534;49.960;8.018;2023-06-14T08:29:19;22.60;62.80
6988;DHT22;3534;49.960;8.018;2023-06-14T08:31:47;22.60;62.20
6988;DHT22;3534;49.960;8.018;2023-06-14T08:34:15;22.70;62.50
6988;DHT22;3534;49.960;8.018;2023-06-14T08:36:41;22.70;64.40
6988;DHT22;3534;49.960;8.018;2023-06-14T08:39:08;22.70;62.80
6988;DHT22;3534;49.960;8.018;2023-06-14T08:41:35;22.70;62.90
6988;DHT22;3534;49.960;8.018;2023-06-14T08:44:02;22.80;62.30
6988;DHT22;3534;49.960;8.018;2023-06-14T08:46:32;22.80;62.70
6988;DHT22;3534;49.960;8.018;2023-06-14T08:49:01;22.90;62.50
6988;DHT22;3534;49.960;8.018;2023-06-14T08:51:31;22.90;62.20
6988;DHT22;3534;49.960;8.018;2023-06-14T08:54:00;22.90;64.20
6988;DHT22;3534;49.960;8.018;2023-06-14T08:56:27;23.00;63.00
6988;DHT22;3534;49.960;8.018;2023-06-14T08:58:55;23.00;65.30
6988;DHT22;3534;49.960;8.018;2023-06-14T09:01:22;23.10;62.90
6988;DHT22;3534;49.960;8.018;2023-06-14T09:03:49;23.10;62.00
6988;DHT22;3534;49.960;8.018;2023-06-14T09:06:16;23.20;61.30
6988;DHT22;3534;49.960;8.018;2023-06-14T09:08:46;23.20;61.90
6988;DHT22;3534;49.960;8.018;2023-06-14T09:11:15;23.20;62.50
6988;DHT22;3534;49.960;8.018;2023-06-14T09:13:42;23.30;62.70
6988;DHT22;3534;49.960;8.018;2023-06-14T09:16:08;23.30;63.30
6988;DHT22;3534;49.960;8.018;2023-06-14T09:18:36;23.30;61.60
6988;DHT22;3534;49.960;8.018;2023-06-14T09:21:05;23.40;62.10
6988;DHT22;3534;49.960;8.018;2023-06-14T09:23:35;23.40;60.80
6988;DHT22;3534;49.960;8.018;2023-06-14T09:26:08;23.40;61.70
6988;DHT22;3534;49.960;8.018;2023-06-14T09:28:35;23.40;60.60
6988;DHT22;3534;49.960;8.018;2023-06-14T09:31:02;23.40;61.50
6988;DHT22;3534;49.960;8.018;2023-06-14T09:33:30;23.50;62.50
6988;DHT22;3534;49.960;8.018;2023-06-14T09:35:57;23.50;62.60
6988;DHT22;3534;49.960;8.018;2023-06-14T09:38:25;23.60;60.80
6988;DHT22;3534;49.960;8.018;2023-06-14T09:40:52;23.60;61.20
6988;DHT22;3534;49.960;8.018;2023-06-14T09:43:21;23.70;66.00
6988;DHT22;3534;49.960;8.018;2023-06-14T09:45:48;23.70;65.80
6988;DHT22;3534;49.960;8.018;2023-06-14T09:48:15;23.80;61.20
6988;DHT22;3534;49.960;8.018;2023-06-14T09:50:45;23.80;58.90
6988;DHT22;3534;49.960;8.018;2023-06-14T09:53:13;23.80;60.50
6988;DHT22;3534;49.960;8.018;2023-06-14T09:55:41;23.80;57.60
6988;DHT22;3534;49.960;8.018;2023-06-14T09:58:09;23.90;58.00
6988;DHT22;3534;49.960;8.018;2023-06-14T10:00:39;23.90;58.20
6988;DHT22;3534;49.960;8.018;2023-06-14T10:03:12;23.90;61.30
6988;DHT22;3534;49.960;8.018;2023-06-14T10:05:41;23.90;59.50
6988;DHT22;3534;49.960;8.018;2023-06-14T10:08:09;24.00;59.60
6988;DHT22;3534;49.960;8.018;2023-06-14T10:10:38;24.10;67.70
6988;DHT22;3534;49.960;8.018;2023-06-14T10:13:05;24.10;60.90
6988;DHT22;3534;49.960;8.018;2023-06-14T10:15:35;24.10;60.70
6988;DHT22;3534;49.960;8.018;2023-06-14T10:18:11;24.20;62.00
6988;DHT22;3534;49.960;8.018;2023-06-14T10:20:53;24.20;62.50
6988;DHT22;3534;49.960;8.018;2023-06-14T10:23:24;24.30;63.30
6988;DHT22;3534;49.960;8.018;2023-06-14T10:25:54;24.30;64.20
6988;DHT22;3534;49.960;8.018;2023-06-14T10:28:22;24.30;59.00
6988;DHT22;3534;49.960;8.018;2023-06-14T10:31:06;24.40;58.70
6988;DHT22;3534;49.960;8.018;2023-06-14T10:33:36;24.40;58.40
6988;DHT22;3534;49.960;8.018;2023-06-14T10:36:11;24.50;58.40
6988;DHT22;3534;49.960;8.018;2023-06-14T10:38:57;24.50;59.70
6988;DHT22;3534;49.960;8.018;2023-06-14T10:41:25;24.50;60.30
6988;DHT22;3534;49.960;8.018;2023-06-14T10:43:52;24.60;59.20
6988;DHT22;3534;49.960;8.018;2023-06-14T10:46:19;24.70;62.40
6988;DHT22;3534;49.960;8.018;2023-06-14T10:48:57;24.70;58.30
6988;DHT22;3534;49.960;8.018;2023-06-14T10:51:24;24.70;59.00
6988;DHT22;3534;49.960;8.018;2023-06-14T10:53:51;24.80;63.70
6988;DHT22;3534;49.960;8.018;2023-06-14T10:56:27;24.80;57.10
6988;DHT22;3534;49.960;8.018;2023-06-14T10:58:55;24.80;57.10
6988;DHT22;3534;49.960;8.018;2023-06-14T11:01:32;24.80;56.30
6988;DHT22;3534;49.960;8.018;2023-06-14T11:04:08;24.80;58.10
6988;DHT22;3534;49.960;8.018;2023-06-14T11:06:46;24.90;56.90
6988;DHT22;3534;49.960;8.018;2023-06-14T11:09:43;24.80;57.10
6988;DHT22;3534;49.960;8.018;2023-06-14T11:12:17;24.90;64.00
6988;DHT22;3534;49.960;8.018;2023-06-14T11:14:45;24.90;58.10
6988;DHT22;3534;49.960;8.018;2023-06-14T11:17:12;25.00;56.30
6988;DHT22;3534;49.960;8.018;2023-06-14T11:19:41;25.00;56.10
6988;DHT22;3534;49.960;8.018;2023-06-14T11:22:07;25.00;55.60
6988;DHT22;3534;49.960;8.018;2023-06-14T11:24:34;24.80;55.80
6988;DHT22;3534;49.960;8.018;2023-06-14T11:27:01;24.70;62.40
6988;DHT22;3534;49.960;8.018;2023-06-14T11:29:29;24.80;59.70
6988;DHT22;3534;49.960;8.018;2023-06-14T11:31:56;24.90;57.70
6988;DHT22;3534;49.960;8.018;2023-06-14T11:34:22;24.90;63.90
6988;DHT22;3534;49.960;8.018;2023-06-14T11:36:50;25.10;63.30
6988;DHT22;3534;49.960;8.018;2023-06-14T11:39:17;25.10;55.80
6988;DHT22;3534;49.960;8.018;2023-06-14T11:41:45;25.10;56.80
6988;DHT22;3534;49.960;8.018;2023-06-14T11:44:12;25.20;57.90
6988;DHT22;3534;49.960;8.018;2023-06-14T11:46:39;25.20;65.80
6988;DHT22;3534;49.960;8.018;2023-06-14T11:49:07;25.20;63.70
6988;DHT22;3534;49.960;8.018;2023-06-14T11:51:35;25.30;61.90
6988;DHT22;3534;49.960;8.018;2023-06-14T11:54:05;25.30;58.30
6988;DHT22;3534;49.960;8.018;2023-06-14T11:56:32;25.40;60.90
6988;DHT22;3534;49.960;8.018;2023-06-14T11:58:59;25.30;60.10
6988;DHT22;3534;49.960;8.018;2023-06-14T12:01:26;25.40;61.00
6988;DHT22;3534;49.960;8.018;2023-06-14T12:03:54;25.50;58.70
6988;DHT22;3534;49.960;8.018;2023-06-14T12:06:26;25.50;60.40
6988;DHT22;3534;49.960;8.018;2023-06-14T12:08:56;25.60;59.50
6988;DHT22;3534;49.960;8.018;2023-06-14T12:11:32;25.60;57.40
6988;DHT22;3534;49.960;8.018;2023-06-14T12:13:59;25.70;61.30
6988;DHT22;3534;49.960;8.018;2023-06-14T12:16:30;25.70;58.70
6988;DHT22;3534;49.960;8.018;2023-06-14T12:19:00;25.80;57.10
6988;DHT22;3534;49.960;8.018;2023-06-14T12:21:27;25.80;55.90
6988;DHT22;3534;49.960;8.018;2023-06-14T12:23:54;25.90;55.80
6988;DHT22;3534;49.960;8.018;2023-06-14T12:26:21;26.00;57.90
6988;DHT22;3534;49.960;8.018;2023-06-14T12:28:52;26.00;57.10
6988;DHT22;3534;49.960;8.018;2023-06-14T12:31:19;26.00;56.40
6988;DHT22;3534;49.960;8.018;2023-06-14T12:33:46;26.10;56.70
6988;DHT22;3534;49.960;8.018;2023-06-14T12:36:14;26.10;56.80
6988;DHT22;3534;49.960;8.018;2023-06-14T12:38:42;26.20;56.00
6988;DHT22;3534;49.960;8.018;2023-06-14T12:41:09;26.30;52.70
6988;DHT22;3534;49.960;8.018;2023-06-14T12:43:36;26.30;57.40
6988;DHT22;3534;49.960;8.018;2023-06-14T12:46:04;26.40;53.30
6988;DHT22;3534;49.960;8.018;2023-06-14T12:48:31;26.40;61.20
6988;DHT22;3534;49.960;8.018;2023-06-14T12:50:58;26.50;53.70
6988;DHT22;3534;49.960;8.018;2023-06-14T12:53:24;26.60;59.00
6988;DHT22;3534;49.960;8.018;2023-06-14T12:55:51;26.60;56.60
6988;DHT22;3534;49.960;8.018;2023-06-14T12:58:18;26.70;62.40
6988;DHT22;3534;49.960;8.018;2023-06-14T13:00:45;26.90;59.90
6988;DHT22;3534;49.960;8.018;2023-06-14T13:03:13;27.10;62.20
6988;DHT22;3534;49.960;8.018;2023-06-14T13:05:40;27.20;57.80
6988;DHT22;3534;49.960;8.018;2023-06-14T13:08:08;27.40;58.40
6988;DHT22;3534;49.960;8.018;2023-06-14T13:10:35;27.60;53.10
6988;DHT22;3534;49.960;8.018;2023-06-14T13:13:02;27.90;57.40
6988;DHT22;3534;49.960;8.018;2023-06-14T13:15:29;28.10;51.10
6988;DHT22;3534;49.960;8.018;2023-06-14T13:17:56;28.40;50.60
6988;DHT22;3534;49.960;8.018;2023-06-14T13:20:24;28.80;49.10
6988;DHT22;3534;49.960;8.018;2023-06-14T13:22:51;29.10;54.70
6988;DHT22;3534;49.960;8.018;2023-06-14T13:25:17;29.60;53.80
6988;DHT22;3534;49.960;8.018;2023-06-14T13:27:44;29.90;53.40
6988;DHT22;3534;49.960;8.018;2023-06-14T13:30:12;30.30;56.00
6988;DHT22;3534;49.960;8.018;2023-06-14T13:32:38;30.40;54.30
6988;DHT22;3534;49.960;8.018;2023-06-14T13:35:06;30.70;55.20
6988;DHT22;3534;49.960;8.018;2023-06-14T13:37:34;31.00;53.70
6988;DHT22;3534;49.960;8.018;2023-06-14T13:40:01;31.50;48.00
6988;DHT22;3534;49.960;8.018;2023-06-14T13:42:28;32.10;50.80
6988;DHT22;3534;49.960;8.018;2023-06-14T13:44:58;32.70;51.60
6988;DHT22;3534;49.960;8.018;2023-06-14T13:47:25;33.30;46.50
6988;DHT22;3534;49.960;8.018;2023-06-14T13:49:51;33.70;53.00
6988;DHT22;3534;49.960;8.018;2023-06-14T13:52:18;33.90;49.60
6988;DHT22;3534;49.960;8.018;2023-06-14T13:54:46;33.80;50.00
6988;DHT22;3534;49.960;8.018;2023-06-14T13:57:13;33.30;51.30
6988;DHT22;3534;49.960;8.018;2023-06-14T13:59:40;32.90;49.60
6988;DHT22;3534;49.960;8.018;2023-06-14T14:02:08;32.40;52.50
6988;DHT22;3534;49.960;8.018;2023-06-14T14:04:34;32.20;51.50
6988;DHT22;3534;49.960;8.018;2023-06-14T14:07:01;32.20;49.40
6988;DHT22;3534;49.960;8.018;2023-06-14T14:09:28;32.30;51.50
6988;DHT22;3534;49.960;8.018;2023-06-14T14:11:57;32.70;46.20
6988;DHT22;3534;49.960;8.018;2023-06-14T14:14:24;33.20;47.20
6988;DHT22;3534;49.960;8.018;2023-06-14T14:16:51;33.80;44.30
6988;DHT22;3534;49.960;8.018;2023-06-14T14:19:18;34.30;49.30
6988;DHT22;3534;49.960;8.018;2023-06-14T14:21:45;34.80;50.00
6988;DHT22;3534;49.960;8.018;2023-06-14T14:24:12;35.30;42.90
6988;DHT22;3534;49.960;8.018;2023-06-14T14:26:39;35.60;46.40
6988;DHT22;3534;49.960;8.018;2023-06-14T14:29:07;35.80;45.40
6988;DHT22;3534;49.960;8.018;2023-06-14T14:31:36;36.20;40.90
6988;DHT22;3534;49.960;8.018;2023-06-14T14:34:03;36.40;39.80
6988;DHT22;3534;49.960;8.018;2023-06-14T14:36:30;36.60;46.10
6988;DHT22;3534;49.960;8.018;2023-06-14T14:38:58;36.60;40.00
6988;DHT22;3534;49.960;8.018;2023-06-14T14:41:25;36.30;40.70
6988;DHT22;3534;49.960;8.018;2023-06-14T14:43:52;35.80;47.40
6988;DHT22;3534;49.960;8.018;2023-06-14T14:46:20;35.40;44.50
6988;DHT22;3534;49.960;8.018;2023-06-14T14:48:47;34.80;40.10
6988;DHT22;3534;49.960;8.018;2023-06-14T14:51:14;34.60;44.00
6988;DHT22;3534;49.960;8.018;2023-06-14T14:53:40;34.90;40.60
6988;DHT22;3534;49.960;8.018;2023-06-14T14:56:07;35.30;44.40
6988;DHT22;3534;49.960;8.018;2023-06-14T14:58:34;35.70;47.90
6988;DHT22;3534;49.960;8.018;2023-06-14T15:01:00;36.00;47.90
6988;DHT22;3534;49.960;8.018;2023-06-14T15:03:28;36.30;46.80
6988;DHT22;3534;49.960;8.018;2023-06-14T15:05:55;36.60;46.80
6988;DHT22;3534;49.960;8.018;2023-06-14T15:08:22;36.80;47.40
6988;DHT22;3534;49.960;8.018;2023-06-14T15:10:49;37.00;46.20
6988;DHT22;3534;49.960;8.018;2023-06-14T15:13:15;37.00;44.50
6988;DHT22;3534;49.960;8.018;2023-06-14T15:15:42;36.60;48.20
6988;DHT22;3534;49.960;8.018;2023-06-14T15:18:09;36.10;46.70
6988;DHT22;3534;49.960;8.018;2023-06-14T15:20:37;35.50;42.40
6988;DHT22;3534;49.960;8.018;2023-06-14T15:23:04;35.30;46.90
6988;DHT22;3534;49.960;8.018;2023-06-14T15:25:31;35.20;48.30
6988;DHT22;3534;49.960;8.018;2023-06-14T15:27:58;35.50;42.00
6988;DHT22;3534;49.960;8.018;2023-06-14T15:30:26;35.70;39.70
6988;DHT22;3534;49.960;8.018;2023-06-14T15:32:53;35.80;46.70
6988;DHT22;3534;49.960;8.018;2023-06-14T15:35:20;36.10;47.30
6988;DHT22;3534;49.960;8.018;2023-06-14T15:37:48;36.40;39.10
6988;DHT22;3534;49.960;8.018;2023-06-14T15:40:15;36.70;42.30
6988;DHT22;3534;49.960;8.018;2023-06-14T15:42:42;36.70;42.30
6988;DHT22;3534;49.960;8.018;2023-06-14T15:45:10;36.50;42.60
6988;DHT22;3534;49.960;8.018;2023-06-14T15:47:36;36.30;43.90
6988;DHT22;3534;49.960;8.018;2023-06-14T15:50:04;36.30;39.70
6988;DHT22;3534;49.960;8.018;2023-06-14T15:52:33;36.50;41.70
6988;DHT22;3534;49.960;8.018;2023-06-14T15:55:01;36.70;44.80
6988;DHT22;3534;49.960;8.018;2023-06-14T15:57:29;36.90;41.80
6988;DHT22;3534;49.960;8.018;2023-06-14T15:59:55;36.90;39.30
6988;DHT22;3534;49.960;8.018;2023-06-14T16:02:22;36.80;46.20
6988;DHT22;3534;49.960;8.018;2023-06-14T16:04:49;36.80;43.40